createdAt,value
2019-05-30T00:00:21.845Z,101801.95
2019-05-30T00:01:26.763Z,101797.23
2019-05-30T00:02:32.334Z,101799.07
2019-05-30T00:03:37.369Z,101794.06
2019-05-30T00:04:42.917Z,101789.67
2019-05-30T00:05:48.327Z,101790.37
2019-05-30T00:06:54.296Z,101794.76
2019-05-30T00:08:00.316Z,101794.27
2019-05-30T00:09:10.051Z,101801.83
2019-05-30T00:10:15.246Z,101793.25
2019-05-30T00:11:20.929Z,101799.14
2019-05-30T00:12:26.201Z,101796.95
2019-05-30T00:13:31.744Z,101796.46
2019-05-30T00:14:36.646Z,101795.25
2019-05-30T00:15:42.557Z,101792.44
2019-05-30T00:16:47.476Z,101795.61
2019-05-30T00:17:53.089Z,101798.30
2019-05-30T00:18:58.745Z,101798.42
2019-05-30T00:20:05.788Z,101791.38
2019-05-30T00:21:10.981Z,101792.72
2019-05-30T00:22:16.718Z,101792.00
2019-05-30T00:23:21.659Z,101795.66
2019-05-30T00:24:27.182Z,101796.31
2019-05-30T00:25:32.138Z,101796.11
2019-05-30T00:26:37.828Z,101802.95
2019-05-30T00:27:43.007Z,101806.64
2019-05-30T00:28:48.505Z,101804.58
2019-05-30T00:29:53.763Z,101802.91
2019-05-30T00:31:00.414Z,101801.20
2019-05-30T00:32:05.599Z,101800.84
2019-05-30T00:33:11.102Z,101801.33
2019-05-30T00:34:15.996Z,101796.61
2019-05-30T00:35:21.524Z,101795.75
2019-05-30T00:36:26.485Z,101790.75
2019-05-30T00:37:32.718Z,101804.01
2019-05-30T00:38:37.641Z,101795.14
2019-05-30T00:39:43.194Z,101795.14
2019-05-30T00:40:48.115Z,101797.17
2019-05-30T00:41:53.778Z,101792.78
2019-05-30T00:42:59.932Z,101798.64
2019-05-30T00:44:06.478Z,101795.95
2019-05-30T00:45:20.820Z,101799.98
2019-05-30T00:46:19.159Z,101796.12
2019-05-30T00:47:24.092Z,101799.78
2019-05-30T00:48:29.996Z,101802.46
2019-05-30T00:49:34.944Z,101799.78
2019-05-30T00:50:40.520Z,101799.42
2019-05-30T00:51:45.695Z,101797.75
2019-05-30T00:52:51.284Z,101798.59
2019-05-30T00:53:56.507Z,101795.06
2019-05-30T00:55:02.958Z,101795.06
2019-05-30T00:56:08.344Z,101794.05
2019-05-30T00:57:14.149Z,101800.27
2019-05-30T00:58:19.086Z,101796.73
2019-05-30T00:59:24.890Z,101790.55
2019-05-30T01:00:42.958Z,101792.22
2019-05-30T01:01:37.142Z,101795.06
2019-05-30T01:02:42.193Z,101792.50
2019-05-30T01:03:47.983Z,101790.67
2019-05-30T01:04:52.956Z,101789.49
2019-05-30T01:05:58.782Z,101792.66
2019-05-30T01:07:05.237Z,101794.62
2019-05-30T01:08:11.384Z,101792.22
2019-05-30T01:09:16.436Z,101790.67
2019-05-30T01:10:22.099Z,101786.78
2019-05-30T01:11:27.051Z,101787.43
2019-05-30T01:12:32.954Z,101791.09
2019-05-30T01:13:37.945Z,101794.29
2019-05-30T01:14:43.755Z,101787.71
2019-05-30T01:15:48.786Z,101790.03
2019-05-30T01:16:58.913Z,101792.38
2019-05-30T01:18:05.230Z,101784.34
2019-05-30T01:19:11.265Z,101789.70
2019-05-30T01:20:16.636Z,101788.97
2019-05-30T01:21:22.383Z,101785.31
2019-05-30T01:22:27.316Z,101787.99
2019-05-30T01:23:32.821Z,101794.41
2019-05-30T01:24:37.725Z,101786.00
2019-05-30T01:25:43.281Z,101790.88
2019-05-30T01:26:48.201Z,101789.05
2019-05-30T01:27:53.703Z,101791.73
2019-05-30T01:28:59.373Z,101794.78
2019-05-30T01:30:05.771Z,101785.39
2019-05-30T01:31:11.718Z,101788.08
2019-05-30T01:32:30.094Z,101789.41
2019-05-30T01:33:35.071Z,101790.76
2019-05-30T01:34:40.663Z,101784.66
2019-05-30T01:35:45.887Z,101786.00
2019-05-30T01:36:51.405Z,101790.39
2019-05-30T01:37:57.581Z,101785.03
2019-05-30T01:39:03.845Z,101786.86
2019-05-30T01:40:09.380Z,101793.08
2019-05-30T01:41:17.523Z,101787.22
2019-05-30T01:42:21.618Z,101790.27
2019-05-30T01:43:27.512Z,101785.72
2019-05-30T01:44:32.472Z,101788.41
2019-05-30T01:45:38.112Z,101792.42
2019-05-30T01:46:43.078Z,101791.09
2019-05-30T01:47:48.788Z,101788.08
2019-05-30T01:48:53.734Z,101790.76
2019-05-30T01:50:00.328Z,101791.09
2019-05-30T01:51:06.546Z,101787.06
2019-05-30T01:52:12.155Z,101785.72
2019-05-30T01:53:17.330Z,101787.43
2019-05-30T01:54:22.863Z,101790.11
2019-05-30T01:55:27.834Z,101777.55
2019-05-30T01:56:33.376Z,101785.96
2019-05-30T01:57:38.647Z,101786.45
2019-05-30T01:58:44.155Z,101782.75
2019-05-30T01:59:49.102Z,101779.09
2019-05-30T02:00:54.612Z,101784.83
2019-05-30T02:02:00.833Z,101778.73
2019-05-30T02:03:07.061Z,101780.59
2019-05-30T02:04:12.314Z,101780.59
2019-05-30T02:05:18.625Z,101778.41
2019-05-30T02:06:23.572Z,101782.06
2019-05-30T02:07:29.078Z,101776.20
2019-05-30T02:08:34.414Z,101774.38
2019-05-30T02:09:39.995Z,101777.39
2019-05-30T02:10:45.041Z,101779.09
2019-05-30T02:11:50.548Z,101775.44
2019-05-30T02:12:55.838Z,101772.02
2019-05-30T02:14:01.639Z,101774.38
2019-05-30T02:15:07.754Z,101778.41
2019-05-30T02:16:13.344Z,101769.63
2019-05-30T02:17:18.569Z,101774.17
2019-05-30T02:18:24.214Z,101773.32
2019-05-30T02:19:29.206Z,101774.30
2019-05-30T02:20:34.793Z,101771.25
2019-05-30T02:21:39.721Z,101772.27
2019-05-30T02:22:45.405Z,101771.91
2019-05-30T02:23:50.343Z,101772.75
2019-05-30T02:24:55.925Z,101770.69
2019-05-30T02:26:02.110Z,101765.84
2019-05-30T02:27:08.361Z,101769.87
2019-05-30T02:28:13.282Z,101770.36
2019-05-30T02:29:18.785Z,101772.87
2019-05-30T02:30:23.884Z,101776.05
2019-05-30T02:31:39.211Z,101776.41
2019-05-30T02:32:36.097Z,101776.91
2019-05-30T02:33:41.926Z,101775.07
2019-05-30T02:34:46.886Z,101778.73
2019-05-30T02:35:52.821Z,101778.41
2019-05-30T02:36:57.791Z,101788.64
2019-05-30T02:38:05.078Z,101781.94
2019-05-30T02:39:11.858Z,101784.62
2019-05-30T02:40:19.198Z,101777.91
2019-05-30T02:41:25.591Z,101781.78
2019-05-30T02:42:31.225Z,101784.34
2019-05-30T02:43:36.184Z,101784.66
2019-05-30T02:44:41.722Z,101783.69
2019-05-30T02:45:46.660Z,101785.39
2019-05-30T02:46:55.441Z,101785.39
2019-05-30T02:48:01.264Z,101791.09
2019-05-30T02:49:10.850Z,101790.96
2019-05-30T02:50:14.360Z,101791.81
2019-05-30T02:51:19.938Z,101792.14
2019-05-30T02:52:25.169Z,101794.50
2019-05-30T02:53:30.740Z,101788.77
2019-05-30T02:54:35.643Z,101792.09
2019-05-30T02:55:41.225Z,101792.09
2019-05-30T02:56:46.233Z,101791.38
2019-05-30T02:57:52.023Z,101793.20
2019-05-30T02:58:57.024Z,101795.19
2019-05-30T03:00:04.599Z,101797.51
2019-05-30T03:01:11.928Z,101797.30
2019-05-30T03:02:17.869Z,101794.62
2019-05-30T03:03:22.950Z,101796.94
2019-05-30T03:04:28.581Z,101794.25
2019-05-30T03:05:33.958Z,101800.14
2019-05-30T03:06:39.709Z,101798.44
2019-05-30T03:07:44.810Z,101797.58
2019-05-30T03:08:50.671Z,101796.73
2019-05-30T03:09:56.239Z,101804.29
2019-05-30T03:11:02.958Z,101803.10
2019-05-30T03:12:11.065Z,101810.14
2019-05-30T03:13:16.536Z,101809.81
2019-05-30T03:14:21.818Z,101808.23
2019-05-30T03:15:27.964Z,101809.56
2019-05-30T03:16:32.859Z,101811.39
2019-05-30T03:17:38.385Z,101808.88
2019-05-30T03:18:43.372Z,101810.70
2019-05-30T03:19:48.934Z,101811.55
2019-05-30T03:20:54.011Z,101813.88
2019-05-30T03:21:59.949Z,101812.89
2019-05-30T03:23:05.930Z,101820.45
2019-05-30T03:24:14.242Z,101819.96
2019-05-30T03:25:19.374Z,101820.58
2019-05-30T03:26:25.025Z,101816.55
2019-05-30T03:27:30.282Z,101821.22
2019-05-30T03:28:36.199Z,101820.36
2019-05-30T03:29:41.254Z,101817.31
2019-05-30T03:30:47.628Z,101820.48
2019-05-30T03:31:53.515Z,101821.02
2019-05-30T03:33:12.891Z,101815.41
2019-05-30T03:34:16.932Z,101817.59
2019-05-30T03:35:27.703Z,101819.30
2019-05-30T03:36:29.769Z,101812.72
2019-05-30T03:37:31.030Z,101813.25
2019-05-30T03:38:36.110Z,101814.34
2019-05-30T03:39:41.874Z,101822.39
2019-05-30T03:40:47.064Z,101808.65
2019-05-30T03:41:52.952Z,101805.11
2019-05-30T03:42:58.004Z,101808.28
2019-05-30T03:44:04.404Z,101809.14
2019-05-30T03:45:13.547Z,101816.33
2019-05-30T03:46:21.654Z,101810.11
2019-05-30T03:47:29.602Z,101817.18
2019-05-30T03:48:36.542Z,101811.45
2019-05-30T03:49:44.014Z,101817.30
2019-05-30T03:50:53.208Z,101818.64
2019-05-30T03:52:01.228Z,101813.28
2019-05-30T03:53:09.916Z,101817.30
2019-05-30T03:54:16.029Z,101822.66
2019-05-30T03:55:22.322Z,101818.16
2019-05-30T03:56:35.530Z,101814.62
2019-05-30T03:57:46.039Z,101816.45
2019-05-30T03:59:08.194Z,101817.45
2019-05-30T04:00:27.006Z,101813.92
2019-05-30T04:01:37.871Z,101816.61
2019-05-30T04:02:59.211Z,101816.61
2019-05-30T04:04:14.492Z,101811.24
2019-05-30T04:05:25.640Z,101816.97
2019-05-30T04:06:33.979Z,101816.33
2019-05-30T04:07:44.732Z,101814.62
2019-05-30T04:08:52.762Z,101817.67
2019-05-30T04:10:00.924Z,101820.71
2019-05-30T04:11:10.453Z,101824.22
2019-05-30T04:12:41.956Z,101815.20
2019-05-30T04:13:54.264Z,101813.37
2019-05-30T04:15:07.815Z,101817.88
2019-05-30T04:16:13.602Z,101814.83
2019-05-30T04:17:20.130Z,101818.85
2019-05-30T04:18:25.474Z,101824.09
2019-05-30T04:19:30.999Z,101824.58
2019-05-30T04:20:35.916Z,101824.58
2019-05-30T04:21:41.404Z,101832.50
2019-05-30T04:22:46.417Z,101831.00
2019-05-30T04:23:52.061Z,101827.47
2019-05-30T04:24:56.967Z,101828.33
2019-05-30T04:26:02.601Z,101821.13
2019-05-30T04:27:08.464Z,101829.87
2019-05-30T04:28:16.188Z,101825.85
2019-05-30T04:29:22.167Z,101825.23
2019-05-30T04:30:27.862Z,101823.90
2019-05-30T04:31:32.868Z,101829.63
2019-05-30T04:32:38.370Z,101829.63
2019-05-30T04:33:43.576Z,101829.63
2019-05-30T04:34:49.324Z,101827.28
2019-05-30T04:35:54.244Z,101827.28
2019-05-30T04:36:59.786Z,101827.64
2019-05-30T04:38:04.899Z,101826.67
2019-05-30T04:39:11.324Z,101824.96
2019-05-30T04:40:17.713Z,101828.34
2019-05-30T04:41:24.679Z,101829.19
2019-05-30T04:42:29.582Z,101831.38
2019-05-30T04:43:35.182Z,101823.70
2019-05-30T04:44:40.168Z,101821.35
2019-05-30T04:45:45.651Z,101830.62
2019-05-30T04:46:50.922Z,101817.70
2019-05-30T04:47:56.489Z,101827.45
2019-05-30T04:49:01.440Z,101826.95
2019-05-30T04:50:07.165Z,101825.09
2019-05-30T04:51:12.610Z,101826.80
2019-05-30T04:52:21.099Z,101824.12
2019-05-30T04:53:26.428Z,101828.50
2019-05-30T04:54:32.054Z,101828.34
2019-05-30T04:55:37.040Z,101822.17
2019-05-30T04:56:42.530Z,101825.18
2019-05-30T04:57:47.446Z,101825.55
2019-05-30T04:58:52.971Z,101828.23
2019-05-30T04:59:57.965Z,101828.07
2019-05-30T05:01:03.633Z,101828.59
2019-05-30T05:02:08.532Z,101828.07
2019-05-30T05:03:15.450Z,101834.16
2019-05-30T05:04:21.627Z,101829.16
2019-05-30T05:05:27.509Z,101829.65
2019-05-30T05:06:32.489Z,101832.66
2019-05-30T05:07:38.087Z,101824.13
2019-05-30T05:08:43.015Z,101829.86
2019-05-30T05:09:48.658Z,101825.34
2019-05-30T05:10:53.694Z,101827.38
2019-05-30T05:11:59.278Z,101828.36
2019-05-30T05:13:04.250Z,101825.67
2019-05-30T05:14:09.746Z,101830.91
2019-05-30T05:15:16.433Z,101827.38
2019-05-30T05:16:34.469Z,101825.19
2019-05-30T05:17:29.501Z,101826.89
2019-05-30T05:18:35.230Z,101828.23
2019-05-30T05:19:40.174Z,101825.91
2019-05-30T05:20:45.808Z,101829.45
2019-05-30T05:21:50.838Z,101829.45
2019-05-30T05:22:56.651Z,101830.79
2019-05-30T05:24:01.719Z,101828.23
2019-05-30T05:25:07.491Z,101832.75
2019-05-30T05:26:13.435Z,101827.38
2019-05-30T05:27:19.668Z,101831.89
2019-05-30T05:28:24.800Z,101835.06
2019-05-30T05:29:30.431Z,101834.58
2019-05-30T05:30:35.534Z,101839.45
2019-05-30T05:31:41.048Z,101839.09
2019-05-30T05:32:45.959Z,101836.28
2019-05-30T05:33:56.740Z,101836.98
2019-05-30T05:34:58.744Z,101837.34
2019-05-30T05:36:04.346Z,101833.19
2019-05-30T05:37:09.528Z,101842.42
2019-05-30T05:38:16.160Z,101841.28
2019-05-30T05:39:22.209Z,101835.80
2019-05-30T05:40:28.507Z,101833.80
2019-05-30T05:41:33.594Z,101841.24
2019-05-30T05:42:39.088Z,101841.08
2019-05-30T05:43:43.993Z,101844.49
2019-05-30T05:44:49.495Z,101842.50
2019-05-30T05:45:54.575Z,101838.48
2019-05-30T05:47:00.070Z,101842.22
2019-05-30T05:48:05.130Z,101843.92
2019-05-30T05:49:10.639Z,101843.28
2019-05-30T05:50:16.939Z,101841.94
2019-05-30T05:51:22.801Z,101842.30
2019-05-30T05:52:28.887Z,101844.49
2019-05-30T05:53:34.766Z,101839.61
2019-05-30T05:54:39.729Z,101842.63
2019-05-30T05:55:45.272Z,101846.66
2019-05-30T05:56:50.272Z,101847.02
2019-05-30T05:57:55.800Z,101851.04
2019-05-30T05:59:00.738Z,101846.66
2019-05-30T06:00:06.907Z,101846.16
2019-05-30T06:01:11.825Z,101854.58
2019-05-30T06:02:17.717Z,101848.36
2019-05-30T06:03:24.300Z,101851.04
2019-05-30T06:04:29.825Z,101842.98
2019-05-30T06:05:34.900Z,101848.72
2019-05-30T06:06:40.420Z,101850.91
2019-05-30T06:07:45.542Z,101852.75
2019-05-30T06:08:51.138Z,101853.36
2019-05-30T06:09:56.080Z,101855.72
2019-05-30T06:11:01.666Z,101858.40
2019-05-30T06:12:06.659Z,101862.76
2019-05-30T06:13:12.178Z,101857.75
2019-05-30T06:14:17.803Z,101862.76
2019-05-30T06:15:23.364Z,101858.40
2019-05-30T06:16:28.461Z,101858.53
2019-05-30T06:17:33.942Z,101861.70
2019-05-30T06:18:38.890Z,101865.39
2019-05-30T06:19:46.770Z,101864.38
2019-05-30T06:20:51.066Z,101863.41
2019-05-30T06:21:56.765Z,101865.11
2019-05-30T06:23:01.928Z,101863.41
2019-05-30T06:24:07.499Z,101873.28
2019-05-30T06:25:12.588Z,101870.11
2019-05-30T06:26:18.125Z,101867.80
2019-05-30T06:27:23.992Z,101874.83
2019-05-30T06:28:29.542Z,101871.53
2019-05-30T06:29:34.791Z,101877.75
2019-05-30T06:30:40.342Z,101869.22
2019-05-30T06:31:45.300Z,101873.57
2019-05-30T06:32:51.450Z,101872.39
2019-05-30T06:33:56.462Z,101874.22
2019-05-30T06:35:01.975Z,101877.75
2019-05-30T06:36:07.329Z,101881.78
2019-05-30T06:37:13.006Z,101880.92
2019-05-30T06:38:19.054Z,101882.27
2019-05-30T06:39:25.495Z,101889.83
2019-05-30T06:40:32.204Z,101880.92
2019-05-30T06:41:38.440Z,101886.66
2019-05-30T06:42:43.619Z,101889.34
2019-05-30T06:43:49.152Z,101886.66
2019-05-30T06:44:54.074Z,101891.50
2019-05-30T06:45:59.723Z,101894.71
2019-05-30T06:47:05.046Z,101890.69
2019-05-30T06:48:10.772Z,101894.19
2019-05-30T06:49:15.821Z,101893.09
2019-05-30T06:50:22.553Z,101898.78
2019-05-30T06:51:28.972Z,101901.70
2019-05-30T06:52:34.581Z,101905.09
2019-05-30T06:53:39.625Z,101893.37
2019-05-30T06:54:45.121Z,101896.88
2019-05-30T06:55:50.321Z,101894.91
2019-05-30T06:56:56.132Z,101895.61
2019-05-30T06:58:01.108Z,101895.61
2019-05-30T06:59:06.894Z,101895.97
2019-05-30T07:00:12.260Z,101893.66
2019-05-30T07:01:17.943Z,101892.92
2019-05-30T07:02:24.122Z,101893.94
2019-05-30T07:03:30.569Z,101892.23
2019-05-30T07:04:50.804Z,101891.25
2019-05-30T07:05:43.667Z,101891.95
2019-05-30T07:06:49.255Z,101896.83
2019-05-30T07:07:55.071Z,101892.31
2019-05-30T07:09:00.106Z,101892.64
2019-05-30T07:10:07.448Z,101891.30
2019-05-30T07:11:12.694Z,101898.73
2019-05-30T07:12:18.169Z,101901.42
2019-05-30T07:13:23.345Z,101898.73
2019-05-30T07:14:29.376Z,101906.14
2019-05-30T07:15:34.527Z,101901.27
2019-05-30T07:16:40.360Z,101902.61
2019-05-30T07:17:45.407Z,101909.31
2019-05-30T07:18:51.077Z,101902.12
2019-05-30T07:19:56.282Z,101903.66
2019-05-30T07:21:01.786Z,101907.23
2019-05-30T07:22:06.814Z,101909.30
2019-05-30T07:23:12.390Z,101910.64
2019-05-30T07:24:17.706Z,101916.34
2019-05-30T07:25:23.866Z,101915.48
2019-05-30T07:26:29.842Z,101915.73
2019-05-30T07:27:35.530Z,101921.92
2019-05-30T07:28:40.472Z,101924.34
2019-05-30T07:29:46.223Z,101925.69
2019-05-30T07:30:51.275Z,101923.83
2019-05-30T07:31:56.910Z,101929.72
2019-05-30T07:33:01.935Z,101930.54
2019-05-30T07:34:07.543Z,101927.36
2019-05-30T07:35:13.137Z,101933.23
2019-05-30T07:36:18.679Z,101927.85
2019-05-30T07:37:24.500Z,101928.99
2019-05-30T07:38:30.499Z,101935.22
2019-05-30T07:39:37.505Z,101935.87
2019-05-30T07:40:42.723Z,101938.31
2019-05-30T07:42:04.875Z,101934.08
2019-05-30T07:42:55.440Z,101938.96
2019-05-30T07:44:00.384Z,101934.08
2019-05-30T07:45:07.382Z,101938.11
2019-05-30T07:46:12.439Z,101936.48
2019-05-30T07:47:18.331Z,101936.07
2019-05-30T07:48:23.408Z,101938.96
2019-05-30T07:49:30.346Z,101938.31
2019-05-30T07:50:35.304Z,101939.53
2019-05-30T07:51:41.081Z,101945.75
2019-05-30T07:52:46.837Z,101940.22
2019-05-30T07:53:52.374Z,101941.92
2019-05-30T07:54:57.381Z,101942.78
2019-05-30T07:56:02.956Z,101945.47
2019-05-30T07:57:07.959Z,101943.42
2019-05-30T07:58:13.585Z,101943.68
2019-05-30T07:59:18.577Z,101947.51
2019-05-30T08:00:24.283Z,101949.50
2019-05-30T08:01:30.432Z,101943.64
2019-05-30T08:02:36.172Z,101947.51
2019-05-30T08:03:41.185Z,101947.02
2019-05-30T08:04:47.150Z,101945.55
2019-05-30T08:05:52.099Z,101941.52
2019-05-30T08:06:57.607Z,101941.85
2019-05-30T08:08:02.615Z,101940.02
2019-05-30T08:09:08.409Z,101943.06
2019-05-30T08:10:14.961Z,101945.10
2019-05-30T08:11:20.638Z,101940.59
2019-05-30T08:12:25.818Z,101946.65
2019-05-30T08:13:31.354Z,101941.15
2019-05-30T08:14:37.365Z,101937.12
2019-05-30T08:15:44.172Z,101938.47
2019-05-30T08:16:49.556Z,101934.31
2019-05-30T08:17:55.708Z,101937.33
2019-05-30T08:19:00.664Z,101932.80
2019-05-30T08:20:07.326Z,101940.22
2019-05-30T08:21:12.347Z,101938.25
2019-05-30T08:22:18.002Z,101935.56
2019-05-30T08:23:23.014Z,101945.66
2019-05-30T08:24:30.138Z,101934.91
2019-05-30T08:25:36.563Z,101940.28
2019-05-30T08:26:42.257Z,101941.14
2019-05-30T08:27:47.400Z,101945.05
2019-05-30T08:28:53.116Z,101943.90
2019-05-30T08:29:58.335Z,101943.13
2019-05-30T08:31:04.039Z,101941.98
2019-05-30T08:32:09.261Z,101940.34
2019-05-30T08:33:15.046Z,101949.33
2019-05-30T08:34:20.389Z,101941.67
2019-05-30T08:35:39.343Z,101943.70
2019-05-30T08:36:32.965Z,101940.76
2019-05-30T08:37:39.414Z,101939.75
2019-05-30T08:38:47.948Z,101938.17
2019-05-30T08:39:52.353Z,101931.03
2019-05-30T08:40:57.382Z,101930.64
2019-05-30T08:42:03.046Z,101940.67
2019-05-30T08:43:08.108Z,101931.69
2019-05-30T08:44:13.808Z,101925.52
2019-05-30T08:45:19.416Z,101934.01
2019-05-30T08:46:25.110Z,101933.71
2019-05-30T08:47:30.455Z,101931.41
2019-05-30T08:48:38.203Z,101926.45
2019-05-30T08:49:43.275Z,101926.53
2019-05-30T08:50:48.907Z,101926.65
2019-05-30T08:51:54.261Z,101922.69
2019-05-30T08:52:59.965Z,101922.80
2019-05-30T08:54:05.160Z,101923.73
2019-05-30T08:55:11.241Z,101918.77
2019-05-30T08:56:16.729Z,101918.02
2019-05-30T08:57:22.842Z,101915.20
2019-05-30T08:58:27.784Z,101912.45
2019-05-30T08:59:34.394Z,101920.77
2019-05-30T09:00:39.410Z,101920.64
2019-05-30T09:01:46.393Z,101920.02
2019-05-30T09:02:51.998Z,101921.09
2019-05-30T09:03:57.522Z,101923.16
2019-05-30T09:05:06.125Z,101919.30
2019-05-30T09:06:09.811Z,101916.16
2019-05-30T09:07:14.981Z,101918.18
2019-05-30T09:08:20.479Z,101911.30
2019-05-30T09:09:25.617Z,101913.19
2019-05-30T09:10:31.281Z,101910.17
2019-05-30T09:11:37.685Z,101915.25
2019-05-30T09:12:48.720Z,101912.59
2019-05-30T09:13:50.335Z,101912.10
2019-05-30T09:14:55.949Z,101911.14
2019-05-30T09:16:01.147Z,101908.98
2019-05-30T09:17:06.798Z,101912.49
2019-05-30T09:18:11.802Z,101909.80
2019-05-30T09:19:17.738Z,101911.47
2019-05-30T09:20:22.961Z,101909.80
2019-05-30T09:21:28.949Z,101907.91
2019-05-30T09:22:33.960Z,101912.27
2019-05-30T09:23:41.008Z,101922.34
2019-05-30T09:24:47.131Z,101913.91
2019-05-30T09:25:54.099Z,101915.21
2019-05-30T09:26:59.244Z,101916.02
2019-05-30T09:28:05.023Z,101918.50
2019-05-30T09:29:10.490Z,101915.94
2019-05-30T09:30:16.910Z,101917.59
2019-05-30T09:31:22.424Z,101920.92
2019-05-30T09:32:28.200Z,101922.27
2019-05-30T09:33:33.363Z,101919.70
2019-05-30T09:34:40.384Z,101919.35
2019-05-30T09:35:46.935Z,101923.39
2019-05-30T09:36:52.652Z,101925.77
2019-05-30T09:37:57.703Z,101926.08
2019-05-30T09:39:03.527Z,101924.73
2019-05-30T09:40:10.499Z,101921.05
2019-05-30T09:41:16.230Z,101919.89
2019-05-30T09:42:21.333Z,101928.19
2019-05-30T09:43:26.934Z,101927.83
2019-05-30T09:44:32.035Z,101928.33
2019-05-30T09:45:37.675Z,101930.53
2019-05-30T09:46:42.658Z,101938.42
2019-05-30T09:47:49.383Z,101939.05
2019-05-30T09:48:55.032Z,101936.18
2019-05-30T09:50:03.812Z,101933.48
2019-05-30T09:51:07.702Z,101946.10
2019-05-30T09:52:13.575Z,101941.20
2019-05-30T09:53:18.516Z,101938.14
2019-05-30T09:54:24.584Z,101944.52
2019-05-30T09:55:29.620Z,101943.17
2019-05-30T09:56:35.303Z,101946.72
2019-05-30T09:57:42.354Z,101944.20
2019-05-30T09:58:47.815Z,101949.91
2019-05-30T09:59:52.938Z,101946.18
2019-05-30T10:00:58.562Z,101951.73
2019-05-30T10:02:03.669Z,101951.87
2019-05-30T10:03:09.311Z,101950.17
2019-05-30T10:04:14.622Z,101952.05
2019-05-30T10:05:24.332Z,101948.14
2019-05-30T10:06:30.040Z,101948.81
2019-05-30T10:07:35.783Z,101956.17
2019-05-30T10:08:41.023Z,101955.84
2019-05-30T10:09:47.114Z,101953.39
2019-05-30T10:10:53.375Z,101953.07
2019-05-30T10:11:58.994Z,101950.38
2019-05-30T10:13:04.229Z,101948.41
2019-05-30T10:14:09.906Z,101950.46
2019-05-30T10:15:15.289Z,101943.42
2019-05-30T10:16:21.240Z,101943.11
2019-05-30T10:17:26.295Z,101942.80
2019-05-30T10:18:32.110Z,101945.87
2019-05-30T10:19:37.215Z,101936.84
2019-05-30T10:20:42.764Z,101940.58
2019-05-30T10:21:48.902Z,101940.58
2019-05-30T10:22:54.860Z,101937.58
2019-05-30T10:23:59.772Z,101944.98
2019-05-30T10:25:06.419Z,101950.73
2019-05-30T10:26:11.430Z,101947.05
2019-05-30T10:27:17.339Z,101949.07
2019-05-30T10:28:22.346Z,101938.98
2019-05-30T10:29:27.854Z,101946.25
2019-05-30T10:30:33.042Z,101948.84
2019-05-30T10:31:38.898Z,101947.20
2019-05-30T10:32:46.525Z,101947.63
2019-05-30T10:33:52.895Z,101946.69
2019-05-30T10:34:58.050Z,101943.70
2019-05-30T10:36:03.928Z,101943.78
2019-05-30T10:37:08.930Z,101948.71
2019-05-30T10:38:14.826Z,101946.72
2019-05-30T10:39:19.782Z,101949.59
2019-05-30T10:40:25.578Z,101951.30
2019-05-30T10:41:30.526Z,101948.25
2019-05-30T10:42:36.401Z,101950.62
2019-05-30T10:43:41.396Z,101946.05
2019-05-30T10:44:48.313Z,101956.20
2019-05-30T10:45:53.816Z,101950.98
2019-05-30T10:46:59.594Z,101955.03
2019-05-30T10:48:04.799Z,101951.66
2019-05-30T10:49:10.496Z,101954.99
2019-05-30T10:50:16.860Z,101950.73
2019-05-30T10:51:22.478Z,101959.14
2019-05-30T10:52:27.421Z,101958.11
2019-05-30T10:53:37.149Z,101953.50
2019-05-30T10:54:40.542Z,101957.20
2019-05-30T10:55:50.016Z,101952.83
2019-05-30T10:56:55.682Z,101956.16
2019-05-30T10:58:01.339Z,101959.53
2019-05-30T10:59:06.651Z,101959.84
2019-05-30T11:00:14.798Z,101960.16
2019-05-30T11:01:20.023Z,101962.01
2019-05-30T11:02:25.628Z,101956.47
2019-05-30T11:03:31.195Z,101956.47
2019-05-30T11:04:36.851Z,101961.69
2019-05-30T11:05:46.200Z,101958.86
2019-05-30T11:07:11.346Z,101961.41
2019-05-30T11:08:16.522Z,101959.11
2019-05-30T11:09:25.094Z,101957.48
2019-05-30T11:10:38.917Z,101966.95
2019-05-30T11:11:44.472Z,101961.06
2019-05-30T11:12:56.177Z,101963.09
2019-05-30T11:13:57.378Z,101965.64
2019-05-30T11:15:02.458Z,101965.81
2019-05-30T11:16:08.382Z,101962.98
2019-05-30T11:17:13.469Z,101962.30
2019-05-30T11:18:19.110Z,101957.44
2019-05-30T11:19:24.148Z,101959.46
2019-05-30T11:20:29.795Z,101962.86
2019-05-30T11:21:34.712Z,101958.99
2019-05-30T11:22:40.595Z,101953.42
2019-05-30T11:23:45.566Z,101956.83
2019-05-30T11:24:52.617Z,101958.87
2019-05-30T11:25:58.860Z,101956.88
2019-05-30T11:27:04.512Z,101955.87
2019-05-30T11:28:09.731Z,101957.75
2019-05-30T11:29:15.345Z,101964.70
2019-05-30T11:30:22.795Z,101966.05
2019-05-30T11:31:28.491Z,101965.53
2019-05-30T11:32:33.852Z,101962.68
2019-05-30T11:33:39.619Z,101958.80
2019-05-30T11:34:44.763Z,101957.62
2019-05-30T11:35:50.994Z,101957.98
2019-05-30T11:36:57.270Z,101959.00
2019-05-30T11:38:03.248Z,101957.01
2019-05-30T11:39:08.479Z,101954.63
2019-05-30T11:40:14.536Z,101959.17
2019-05-30T11:41:19.668Z,101953.98
2019-05-30T11:42:25.267Z,101956.35
2019-05-30T11:43:30.307Z,101953.86
2019-05-30T11:44:35.845Z,101953.03
2019-05-30T11:45:41.009Z,101953.05
2019-05-30T11:46:46.603Z,101960.64
2019-05-30T11:47:51.837Z,101957.96
2019-05-30T11:48:57.897Z,101959.16
2019-05-30T11:50:03.040Z,101961.84
2019-05-30T11:51:08.674Z,101962.17
2019-05-30T11:52:13.628Z,101963.64
2019-05-30T11:53:19.226Z,101966.66
2019-05-30T11:54:24.169Z,101962.41
2019-05-30T11:55:30.131Z,101964.90
2019-05-30T11:56:35.143Z,101963.56
2019-05-30T11:57:41.049Z,101968.75
2019-05-30T11:58:46.427Z,101963.18
2019-05-30T11:59:52.267Z,101967.73
2019-05-30T12:00:58.323Z,101968.70
2019-05-30T12:02:04.099Z,101969.17
2019-05-30T12:03:09.176Z,101970.52
2019-05-30T12:04:14.855Z,101969.64
2019-05-30T12:05:20.534Z,101969.96
2019-05-30T12:06:26.436Z,101970.14
2019-05-30T12:07:36.341Z,101971.28
2019-05-30T12:08:38.792Z,101969.93
2019-05-30T12:09:43.893Z,101972.80
2019-05-30T12:10:50.861Z,101972.95
2019-05-30T12:11:57.400Z,101969.75
2019-05-30T12:13:03.181Z,101976.35
2019-05-30T12:14:08.206Z,101975.68
2019-05-30T12:15:15.264Z,101976.70
2019-05-30T12:16:20.323Z,101974.04
2019-05-30T12:17:25.966Z,101975.42
2019-05-30T12:18:31.019Z,101970.02
2019-05-30T12:19:36.536Z,101972.92
2019-05-30T12:20:42.157Z,101975.83
2019-05-30T12:21:47.727Z,101973.33
2019-05-30T12:22:53.778Z,101968.80
2019-05-30T12:24:00.299Z,101967.98
2019-05-30T12:25:05.699Z,101969.50
2019-05-30T12:26:12.417Z,101974.40
2019-05-30T12:27:17.359Z,101973.05
2019-05-30T12:28:23.344Z,101974.55
2019-05-30T12:29:28.362Z,101974.55
2019-05-30T12:30:34.300Z,101978.22
2019-05-30T12:31:39.223Z,101973.16
2019-05-30T12:32:45.032Z,101981.92